sensor_id;sensor_type;location;lat;lon;timestamp;P1;durP1;ratioP1;P2;durP2;ratioP2
42036;SDS011;30340;52.004;5.908;2023-01-05T00:02:11;19.67;;;4.45;;
42036;SDS011;30340;52.004;5.908;2023-01-05T00:04:36;19.17;;;4.43;;
42036;SDS011;30340;52.004;5.908;2023-01-05T00:07:02;21.63;;;5.22;;
42036;SDS011;30340;52.004;5.908;2023-01-05T00:09:28;19.65;;;4.57;;
42036;SDS011;30340;52.004;5.908;2023-01-05T00:11:53;17.85;;;4.32;;
42036;SDS011;30340;52.004;5.908;2023-01-05T00:14:38;19.35;;;4.85;;
42036;SDS011;30340;52.004;5.908;2023-01-05T00:17:22;18.85;;;4.72;;
42036;SDS011;30340;52.004;5.908;2023-01-05T00:20:15;20.42;;;4.65;;
42036;SDS011;30340;52.004;5.908;2023-01-05T00:23:01;20.02;;;4.28;;
42036;SDS011;30340;52.004;5.908;2023-01-05T00:25:28;24.58;;;5.50;;
42036;SDS011;30340;52.004;5.908;2023-01-05T00:27:56;26.85;;;4.88;;
42036;SDS011;30340;52.004;5.908;2023-01-05T00:30:27;18.45;;;4.57;;
42036;SDS011;30340;52.004;5.908;2023-01-05T00:32:55;22.23;;;4.70;;
42036;SDS011;30340;52.004;5.908;2023-01-05T00:35:21;21.15;;;4.40;;
42036;SDS011;30340;52.004;5.908;2023-01-05T00:37:47;22.65;;;5.00;;
42036;SDS011;30340;52.004;5.908;2023-01-05T00:40:14;15.98;;;3.97;;
42036;SDS011;30340;52.004;5.908;2023-01-05T00:42:41;20.80;;;5.57;;
42036;SDS011;30340;52.004;5.908;2023-01-05T00:45:08;18.05;;;4.30;;
42036;SDS011;30340;52.004;5.908;2023-01-05T00:47:35;22.63;;;4.72;;
42036;SDS011;30340;52.004;5.908;2023-01-05T00:50:01;17.42;;;4.32;;
42036;SDS011;30340;52.004;5.908;2023-01-05T00:52:27;23.00;;;4.65;;
42036;SDS011;30340;52.004;5.908;2023-01-05T00:54:52;20.98;;;4.75;;
42036;SDS011;30340;52.004;5.908;2023-01-05T00:57:18;18.83;;;4.60;;
42036;SDS011;30340;52.004;5.908;2023-01-05T00:59:43;24.83;;;4.97;;
42036;SDS011;30340;52.004;5.908;2023-01-05T01:02:09;19.33;;;4.05;;
42036;SDS011;30340;52.004;5.908;2023-01-05T01:04:35;20.83;;;4.85;;
42036;SDS011;30340;52.004;5.908;2023-01-05T01:07:01;23.50;;;5.13;;
42036;SDS011;30340;52.004;5.908;2023-01-05T01:09:27;22.02;;;4.50;;
42036;SDS011;30340;52.004;5.908;2023-01-05T01:11:53;20.02;;;4.30;;
42036;SDS011;30340;52.004;5.908;2023-01-05T01:14:19;15.95;;;4.00;;
42036;SDS011;30340;52.004;5.908;2023-01-05T01:16:45;21.05;;;4.80;;
42036;SDS011;30340;52.004;5.908;2023-01-05T01:19:12;19.35;;;4.25;;
42036;SDS011;30340;52.004;5.908;2023-01-05T01:21:42;17.92;;;4.40;;
42036;SDS011;30340;52.004;5.908;2023-01-05T01:24:08;19.67;;;4.07;;
42036;SDS011;30340;52.004;5.908;2023-01-05T01:26:38;20.80;;;4.72;;
42036;SDS011;30340;52.004;5.908;2023-01-05T01:29:04;15.77;;;4.05;;
42036;SDS011;30340;52.004;5.908;2023-01-05T01:31:29;18.27;;;4.03;;
42036;SDS011;30340;52.004;5.908;2023-01-05T01:33:55;15.77;;;3.65;;
42036;SDS011;30340;52.004;5.908;2023-01-05T01:36:21;20.80;;;4.40;;
42036;SDS011;30340;52.004;5.908;2023-01-05T01:38:46;20.10;;;4.28;;
42036;SDS011;30340;52.004;5.908;2023-01-05T01:41:12;22.25;;;4.90;;
42036;SDS011;30340;52.004;5.908;2023-01-05T01:46:06;20.83;;;4.68;;
42036;SDS011;30340;52.004;5.908;2023-01-05T01:48:33;18.65;;;4.60;;
42036;SDS011;30340;52.004;5.908;2023-01-05T01:51:05;18.50;;;3.92;;
42036;SDS011;30340;52.004;5.908;2023-01-05T01:53:39;18.77;;;4.07;;
42036;SDS011;30340;52.004;5.908;2023-01-05T01:56:08;17.20;;;4.00;;
42036;SDS011;30340;52.004;5.908;2023-01-05T01:58:38;16.38;;;4.10;;
42036;SDS011;30340;52.004;5.908;2023-01-05T02:01:03;18.92;;;4.47;;
42036;SDS011;30340;52.004;5.908;2023-01-05T02:03:29;16.23;;;4.32;;
42036;SDS011;30340;52.004;5.908;2023-01-05T02:05:55;17.90;;;4.53;;
42036;SDS011;30340;52.004;5.908;2023-01-05T02:08:22;17.48;;;3.75;;
42036;SDS011;30340;52.004;5.908;2023-01-05T02:11:04;18.17;;;4.28;;
42036;SDS011;30340;52.004;5.908;2023-01-05T02:21:45;19.48;;;4.28;;
42036;SDS011;30340;52.004;5.908;2023-01-05T02:36:08;19.05;;;3.95;;
42036;SDS011;30340;52.004;5.908;2023-01-05T02:38:45;22.45;;;5.05;;
42036;SDS011;30340;52.004;5.908;2023-01-05T02:41:22;26.38;;;5.10;;
42036;SDS011;30340;52.004;5.908;2023-01-05T02:44:07;18.02;;;4.18;;
42036;SDS011;30340;52.004;5.908;2023-01-05T02:46:33;26.23;;;4.93;;
42036;SDS011;30340;52.004;5.908;2023-01-05T02:48:59;19.73;;;4.85;;
42036;SDS011;30340;52.004;5.908;2023-01-05T02:51:27;20.02;;;5.38;;
42036;SDS011;30340;52.004;5.908;2023-01-05T02:53:59;21.92;;;4.53;;
42036;SDS011;30340;52.004;5.908;2023-01-05T02:56:56;24.13;;;4.93;;
42036;SDS011;30340;52.004;5.908;2023-01-05T02:59:28;27.27;;;4.82;;
42036;SDS011;30340;52.004;5.908;2023-01-05T03:02:00;18.83;;;4.60;;
42036;SDS011;30340;52.004;5.908;2023-01-05T03:04:31;28.63;;;5.93;;
42036;SDS011;30340;52.004;5.908;2023-01-05T03:07:05;19.73;;;4.55;;
42036;SDS011;30340;52.004;5.908;2023-01-05T03:09:36;18.55;;;4.97;;
42036;SDS011;30340;52.004;5.908;2023-01-05T03:12:07;21.98;;;5.00;;
42036;SDS011;30340;52.004;5.908;2023-01-05T03:14:57;20.60;;;4.68;;
42036;SDS011;30340;52.004;5.908;2023-01-05T03:17:28;22.63;;;4.75;;
42036;SDS011;30340;52.004;5.908;2023-01-05T03:19:59;19.75;;;4.68;;
42036;SDS011;30340;52.004;5.908;2023-01-05T03:22:29;21.58;;;4.72;;
42036;SDS011;30340;52.004;5.908;2023-01-05T03:25:17;19.48;;;4.45;;
42036;SDS011;30340;52.004;5.908;2023-01-05T03:28:05;20.95;;;4.68;;
42036;SDS011;30340;52.004;5.908;2023-01-05T03:31:12;21.50;;;4.60;;
42036;SDS011;30340;52.004;5.908;2023-01-05T03:34:16;20.92;;;4.60;;
42036;SDS011;30340;52.004;5.908;2023-01-05T03:37:39;20.10;;;4.72;;
42036;SDS011;30340;52.004;5.908;2023-01-05T03:40:19;18.33;;;4.10;;
42036;SDS011;30340;52.004;5.908;2023-01-05T03:42:48;21.92;;;5.32;;
42036;SDS011;30340;52.004;5.908;2023-01-05T03:45:14;18.90;;;4.20;;
42036;SDS011;30340;52.004;5.908;2023-01-05T03:47:41;20.65;;;4.90;;
42036;SDS011;30340;52.004;5.908;2023-01-05T03:50:07;27.10;;;4.95;;
42036;SDS011;30340;52.004;5.908;2023-01-05T03:52:33;17.33;;;4.35;;
42036;SDS011;30340;52.004;5.908;2023-01-05T03:54:59;19.27;;;4.78;;
42036;SDS011;30340;52.004;5.908;2023-01-05T03:57:24;18.30;;;3.78;;
42036;SDS011;30340;52.004;5.908;2023-01-05T03:59:50;20.05;;;4.45;;
42036;SDS011;30340;52.004;5.908;2023-01-05T04:02:15;21.98;;;4.90;;
42036;SDS011;30340;52.004;5.908;2023-01-05T04:04:41;23.63;;;5.03;;
42036;SDS011;30340;52.004;5.908;2023-01-05T04:07:06;20.08;;;4.55;;
42036;SDS011;30340;52.004;5.908;2023-01-05T04:09:32;18.00;;;4.20;;
42036;SDS011;30340;52.004;5.908;2023-01-05T04:11:58;20.00;;;4.55;;
42036;SDS011;30340;52.004;5.908;2023-01-05T04:14:24;20.35;;;4.15;;
42036;SDS011;30340;52.004;5.908;2023-01-05T04:16:50;18.08;;;4.15;;
42036;SDS011;30340;52.004;5.908;2023-01-05T04:19:15;17.17;;;4.20;;
42036;SDS011;30340;52.004;5.908;2023-01-05T04:21:41;16.85;;;4.13;;
42036;SDS011;30340;52.004;5.908;2023-01-05T04:24:08;21.30;;;4.20;;
42036;SDS011;30340;52.004;5.908;2023-01-05T04:26:35;19.77;;;4.43;;
42036;SDS011;30340;52.004;5.908;2023-01-05T04:29:01;21.83;;;4.85;;
42036;SDS011;30340;52.004;5.908;2023-01-05T04:31:28;15.05;;;4.15;;
42036;SDS011;30340;52.004;5.908;2023-01-05T04:33:53;20.55;;;4.68;;
42036;SDS011;30340;52.004;5.908;2023-01-05T04:36:19;17.17;;;3.97;;
42036;SDS011;30340;52.004;5.908;2023-01-05T04:38:44;20.20;;;4.53;;
42036;SDS011;30340;52.004;5.908;2023-01-05T04:41:10;16.95;;;3.95;;
42036;SDS011;30340;52.004;5.908;2023-01-05T04:43:36;24.83;;;5.05;;
42036;SDS011;30340;52.004;5.908;2023-01-05T04:46:01;19.48;;;4.32;;
42036;SDS011;30340;52.004;5.908;2023-01-05T04:48:27;15.98;;;4.18;;
42036;SDS011;30340;52.004;5.908;2023-01-05T04:50:53;19.48;;;3.80;;
42036;SDS011;30340;52.004;5.908;2023-01-05T04:53:19;15.60;;;3.70;;
42036;SDS011;30340;52.004;5.908;2023-01-05T04:55:46;16.02;;;3.78;;
42036;SDS011;30340;52.004;5.908;2023-01-05T04:58:12;15.60;;;3.88;;
42036;SDS011;30340;52.004;5.908;2023-01-05T05:00:37;17.02;;;3.90;;
42036;SDS011;30340;52.004;5.908;2023-01-05T05:03:03;17.88;;;3.92;;
42036;SDS011;30340;52.004;5.908;2023-01-05T05:05:29;22.08;;;4.60;;
42036;SDS011;30340;52.004;5.908;2023-01-05T05:07:54;21.02;;;4.28;;
42036;SDS011;30340;52.004;5.908;2023-01-05T05:10:20;18.50;;;3.60;;
42036;SDS011;30340;52.004;5.908;2023-01-05T05:12:45;21.30;;;4.35;;
42036;SDS011;30340;52.004;5.908;2023-01-05T05:15:11;20.65;;;4.50;;
42036;SDS011;30340;52.004;5.908;2023-01-05T05:17:36;17.17;;;4.53;;
42036;SDS011;30340;52.004;5.908;2023-01-05T05:20:02;21.02;;;4.43;;
42036;SDS011;30340;52.004;5.908;2023-01-05T05:22:29;24.17;;;4.45;;
42036;SDS011;30340;52.004;5.908;2023-01-05T05:24:55;19.90;;;4.13;;
42036;SDS011;30340;52.004;5.908;2023-01-05T05:27:20;22.45;;;3.72;;
42036;SDS011;30340;52.004;5.908;2023-01-05T05:29:46;19.00;;;4.18;;
42036;SDS011;30340;52.004;5.908;2023-01-05T05:32:12;13.75;;;3.90;;
42036;SDS011;30340;52.004;5.908;2023-01-05T05:34:37;19.30;;;4.22;;
42036;SDS011;30340;52.004;5.908;2023-01-05T05:37:03;21.52;;;4.38;;
42036;SDS011;30340;52.004;5.908;2023-01-05T05:39:28;19.63;;;4.38;;
42036;SDS011;30340;52.004;5.908;2023-01-05T05:41:54;13.40;;;3.53;;
42036;SDS011;30340;52.004;5.908;2023-01-05T05:44:20;16.52;;;3.72;;
42036;SDS011;30340;52.004;5.908;2023-01-05T05:46:45;14.82;;;3.50;;
42036;SDS011;30340;52.004;5.908;2023-01-05T05:49:11;15.18;;;3.80;;
42036;SDS011;30340;52.004;5.908;2023-01-05T05:51:37;13.93;;;3.40;;
42036;SDS011;30340;52.004;5.908;2023-01-05T05:54:03;14.70;;;3.47;;
42036;SDS011;30340;52.004;5.908;2023-01-05T05:56:28;18.83;;;4.22;;
42036;SDS011;30340;52.004;5.908;2023-01-05T05:58:54;17.02;;;3.53;;
42036;SDS011;30340;52.004;5.908;2023-01-05T06:01:20;20.20;;;4.20;;
42036;SDS011;30340;52.004;5.908;2023-01-05T06:03:45;20.13;;;4.63;;
42036;SDS011;30340;52.004;5.908;2023-01-05T06:06:11;20.25;;;4.15;;
42036;SDS011;30340;52.004;5.908;2023-01-05T06:08:37;19.70;;;3.95;;
42036;SDS011;30340;52.004;5.908;2023-01-05T06:11:02;19.52;;;4.30;;
42036;SDS011;30340;52.004;5.908;2023-01-05T06:13:28;16.23;;;3.63;;
42036;SDS011;30340;52.004;5.908;2023-01-05T06:15:53;17.15;;;3.80;;
42036;SDS011;30340;52.004;5.908;2023-01-05T06:18:19;19.13;;;4.03;;
42036;SDS011;30340;52.004;5.908;2023-01-05T06:20:45;20.52;;;5.15;;
42036;SDS011;30340;52.004;5.908;2023-01-05T06:23:10;17.73;;;3.63;;
42036;SDS011;30340;52.004;5.908;2023-01-05T06:25:36;16.75;;;3.72;;
42036;SDS011;30340;52.004;5.908;2023-01-05T06:28:02;17.45;;;3.92;;
42036;SDS011;30340;52.004;5.908;2023-01-05T06:30:27;17.88;;;3.92;;
42036;SDS011;30340;52.004;5.908;2023-01-05T06:32:53;18.33;;;3.80;;
42036;SDS011;30340;52.004;5.908;2023-01-05T06:35:19;20.50;;;3.80;;
42036;SDS011;30340;52.004;5.908;2023-01-05T06:37:45;16.92;;;3.63;;
42036;SDS011;30340;52.004;5.908;2023-01-05T06:40:11;16.65;;;3.78;;
42036;SDS011;30340;52.004;5.908;2023-01-05T06:42:37;23.05;;;4.70;;
42036;SDS011;30340;52.004;5.908;2023-01-05T06:45:03;18.30;;;4.07;;
42036;SDS011;30340;52.004;5.908;2023-01-05T06:47:30;20.17;;;4.28;;
42036;SDS011;30340;52.004;5.908;2023-01-05T06:49:55;19.63;;;4.18;;
42036;SDS011;30340;52.004;5.908;2023-01-05T06:52:21;17.63;;;4.25;;
42036;SDS011;30340;52.004;5.908;2023-01-05T06:54:47;20.17;;;4.45;;
42036;SDS011;30340;52.004;5.908;2023-01-05T06:57:12;21.80;;;5.00;;
42036;SDS011;30340;52.004;5.908;2023-01-05T06:59:38;19.23;;;4.60;;
42036;SDS011;30340;52.004;5.908;2023-01-05T07:02:04;19.42;;;3.92;;
42036;SDS011;30340;52.004;5.908;2023-01-05T07:04:30;15.85;;;3.95;;
42036;SDS011;30340;52.004;5.908;2023-01-05T07:06:55;18.98;;;4.20;;
42036;SDS011;30340;52.004;5.908;2023-01-05T07:09:21;17.52;;;3.60;;
42036;SDS011;30340;52.004;5.908;2023-01-05T07:11:47;14.70;;;3.85;;
42036;SDS011;30340;52.004;5.908;2023-01-05T07:14:12;18.80;;;4.15;;
42036;SDS011;30340;52.004;5.908;2023-01-05T07:16:38;13.88;;;3.50;;
42036;SDS011;30340;52.004;5.908;2023-01-05T07:19:04;17.75;;;4.20;;
42036;SDS011;30340;52.004;5.908;2023-01-05T07:21:29;21.27;;;4.35;;
42036;SDS011;30340;52.004;5.908;2023-01-05T07:23:55;19.33;;;4.72;;
42036;SDS011;30340;52.004;5.908;2023-01-05T07:26:20;19.75;;;4.07;;
42036;SDS011;30340;52.004;5.908;2023-01-05T07:28:46;18.75;;;4.15;;
42036;SDS011;30340;52.004;5.908;2023-01-05T07:31:11;20.70;;;4.50;;
42036;SDS011;30340;52.004;5.908;2023-01-05T07:33:37;17.85;;;4.43;;
42036;SDS011;30340;52.004;5.908;2023-01-05T07:36:03;19.85;;;4.63;;
42036;SDS011;30340;52.004;5.908;2023-01-05T07:38:30;21.30;;;4.35;;
42036;SDS011;30340;52.004;5.908;2023-01-05T07:40:59;19.52;;;4.05;;
42036;SDS011;30340;52.004;5.908;2023-01-05T07:43:26;24.15;;;4.75;;
42036;SDS011;30340;52.004;5.908;2023-01-05T07:45:55;16.95;;;4.05;;
42036;SDS011;30340;52.004;5.908;2023-01-05T07:48:22;22.08;;;4.20;;
42036;SDS011;30340;52.004;5.908;2023-01-05T07:50:48;16.45;;;4.05;;
42036;SDS011;30340;52.004;5.908;2023-01-05T07:53:13;14.63;;;4.22;;
42036;SDS011;30340;52.004;5.908;2023-01-05T07:55:39;21.92;;;4.18;;
42036;SDS011;30340;52.004;5.908;2023-01-05T07:58:05;20.02;;;4.65;;
42036;SDS011;30340;52.004;5.908;2023-01-05T08:00:30;14.88;;;3.97;;
42036;SDS011;30340;52.004;5.908;2023-01-05T08:02:56;22.80;;;4.05;;
42036;SDS011;30340;52.004;5.908;2023-01-05T08:05:21;21.63;;;4.22;;
42036;SDS011;30340;52.004;5.908;2023-01-05T08:07:47;20.08;;;4.03;;
42036;SDS011;30340;52.004;5.908;2023-01-05T08:10:12;15.63;;;3.72;;
42036;SDS011;30340;52.004;5.908;2023-01-05T08:12:53;19.60;;;4.03;;
42036;SDS011;30340;52.004;5.908;2023-01-05T08:15:37;23.75;;;4.13;;
42036;SDS011;30340;52.004;5.908;2023-01-05T08:18:03;18.50;;;3.88;;
42036;SDS011;30340;52.004;5.908;2023-01-05T08:20:29;20.90;;;4.90;;
42036;SDS011;30340;52.004;5.908;2023-01-05T08:22:54;22.00;;;4.88;;
42036;SDS011;30340;52.004;5.908;2023-01-05T08:25:20;25.52;;;4.68;;
42036;SDS011;30340;52.004;5.908;2023-01-05T08:27:46;23.80;;;4.45;;
42036;SDS011;30340;52.004;5.908;2023-01-05T08:30:12;19.55;;;4.15;;
42036;SDS011;30340;52.004;5.908;2023-01-05T08:32:38;17.50;;;4.00;;
42036;SDS011;30340;52.004;5.908;2023-01-05T08:35:04;14.57;;;4.00;;
42036;SDS011;30340;52.004;5.908;2023-01-05T08:37:30;19.88;;;4.22;;
42036;SDS011;30340;52.004;5.908;2023-01-05T08:39:56;20.45;;;4.38;;
42036;SDS011;30340;52.004;5.908;2023-01-05T08:42:22;15.63;;;3.55;;
42036;SDS011;30340;52.004;5.908;2023-01-05T08:44:47;15.85;;;3.95;;
42036;SDS011;30340;52.004;5.908;2023-01-05T08:47:13;17.15;;;4.30;;
42036;SDS011;30340;52.004;5.908;2023-01-05T08:49:38;18.38;;;4.53;;
42036;SDS011;30340;52.004;5.908;2023-01-05T08:52:04;19.90;;;4.50;;
42036;SDS011;30340;52.004;5.908;2023-01-05T08:54:31;21.63;;;4.50;;
42036;SDS011;30340;52.004;5.908;2023-01-05T08:56:56;19.77;;;4.30;;
42036;SDS011;30340;52.004;5.908;2023-01-05T08:59:22;20.67;;;4.30;;
42036;SDS011;30340;52.004;5.908;2023-01-05T09:01:49;16.15;;;4.07;;
42036;SDS011;30340;52.004;5.908;2023-01-05T09:04:14;19.17;;;4.15;;
42036;SDS011;30340;52.004;5.908;2023-01-05T09:06:40;14.00;;;3.58;;
42036;SDS011;30340;52.004;5.908;2023-01-05T09:09:05;19.67;;;3.90;;
42036;SDS011;30340;52.004;5.908;2023-01-05T09:11:31;19.02;;;4.22;;
42036;SDS011;30340;52.004;5.908;2023-01-05T09:13:58;16.85;;;3.55;;
42036;SDS011;30340;52.004;5.908;2023-01-05T09:16:28;21.13;;;3.88;;
42036;SDS011;30340;52.004;5.908;2023-01-05T09:18:57;12.45;;;3.25;;
42036;SDS011;30340;52.004;5.908;2023-01-05T09:21:23;16.85;;;3.72;;
42036;SDS011;30340;52.004;5.908;2023-01-05T09:23:49;16.83;;;3.53;;
42036;SDS011;30340;52.004;5.908;2023-01-05T09:26:15;17.73;;;4.20;;
42036;SDS011;30340;52.004;5.908;2023-01-05T09:28:42;21.08;;;4.50;;
42036;SDS011;30340;52.004;5.908;2023-01-05T09:31:09;18.20;;;3.90;;
42036;SDS011;30340;52.004;5.908;2023-01-05T09:33:37;14.98;;;3.72;;
42036;SDS011;30340;52.004;5.908;2023-01-05T09:36:03;17.60;;;3.42;;
42036;SDS011;30340;52.004;5.908;2023-01-05T09:38:29;16.92;;;3.92;;
42036;SDS011;30340;52.004;5.908;2023-01-05T09:40:55;19.10;;;4.22;;
42036;SDS011;30340;52.004;5.908;2023-01-05T09:43:27;17.80;;;3.73;;
42036;SDS011;30340;52.004;5.908;2023-01-05T09:45:56;14.52;;;3.75;;
42036;SDS011;30340;52.004;5.908;2023-01-05T09:48:23;20.67;;;4.45;;
42036;SDS011;30340;52.004;5.908;2023-01-05T09:50:49;15.82;;;3.38;;
42036;SDS011;30340;52.004;5.908;2023-01-05T09:53:18;16.77;;;4.05;;
42036;SDS011;30340;52.004;5.908;2023-01-05T09:55:52;16.58;;;3.80;;
42036;SDS011;30340;52.004;5.908;2023-01-05T09:58:20;18.30;;;4.45;;
42036;SDS011;30340;52.004;5.908;2023-01-05T10:01:01;17.08;;;3.88;;
42036;SDS011;30340;52.004;5.908;2023-01-05T10:03:35;19.58;;;4.40;;
42036;SDS011;30340;52.004;5.908;2023-01-05T10:06:05;22.38;;;4.30;;
42036;SDS011;30340;52.004;5.908;2023-01-05T10:14:31;18.98;;;3.58;;
42036;SDS011;30340;52.004;5.908;2023-01-05T10:17:00;20.02;;;3.75;;
42036;SDS011;30340;52.004;5.908;2023-01-05T10:19:25;12.73;;;3.58;;
42036;SDS011;30340;52.004;5.908;2023-01-05T10:29:46;18.65;;;3.85;;
42036;SDS011;30340;52.004;5.908;2023-01-05T10:34:58;19.48;;;4.38;;
42036;SDS011;30340;52.004;5.908;2023-01-05T10:40:21;17.23;;;4.20;;
42036;SDS011;30340;52.004;5.908;2023-01-05T10:45:45;21.35;;;4.20;;
42036;SDS011;30340;52.004;5.908;2023-01-05T10:48:14;20.50;;;4.75;;
42036;SDS011;30340;52.004;5.908;2023-01-05T10:50:43;18.10;;;4.45;;
42036;SDS011;30340;52.004;5.908;2023-01-05T10:53:20;13.88;;;3.90;;
42036;SDS011;30340;52.004;5.908;2023-01-05T10:56:02;21.75;;;4.63;;
42036;SDS011;30340;52.004;5.908;2023-01-05T10:58:30;16.55;;;3.90;;
42036;SDS011;30340;52.004;5.908;2023-01-05T11:01:03;20.50;;;4.47;;
42036;SDS011;30340;52.004;5.908;2023-01-05T11:03:42;23.20;;;4.85;;
42036;SDS011;30340;52.004;5.908;2023-01-05T11:06:17;21.45;;;4.20;;
42036;SDS011;30340;52.004;5.908;2023-01-05T11:08:45;17.23;;;3.92;;
42036;SDS011;30340;52.004;5.908;2023-01-05T11:11:11;17.08;;;3.95;;
42036;SDS011;30340;52.004;5.908;2023-01-05T11:13:54;21.23;;;4.43;;
42036;SDS011;30340;52.004;5.908;2023-01-05T11:16:21;21.05;;;4.82;;
42036;SDS011;30340;52.004;5.908;2023-01-05T11:18:59;20.90;;;4.53;;
42036;SDS011;30340;52.004;5.908;2023-01-05T11:21:47;18.60;;;3.72;;
42036;SDS011;30340;52.004;5.908;2023-01-05T11:26:55;18.67;;;4.13;;
42036;SDS011;30340;52.004;5.908;2023-01-05T11:29:23;15.00;;;3.75;;
42036;SDS011;30340;52.004;5.908;2023-01-05T11:39:35;17.73;;;4.28;;
42036;SDS011;30340;52.004;5.908;2023-01-05T11:42:08;15.35;;;3.85;;
42036;SDS011;30340;52.004;5.908;2023-01-05T11:44:35;17.80;;;4.15;;
42036;SDS011;30340;52.004;5.908;2023-01-05T11:47:02;18.58;;;4.07;;
42036;SDS011;30340;52.004;5.908;2023-01-05T11:49:30;17.30;;;4.00;;
42036;SDS011;30340;52.004;5.908;2023-01-05T11:51:57;19.70;;;4.82;;
42036;SDS011;30340;52.004;5.908;2023-01-05T11:54:30;14.13;;;3.83;;
42036;SDS011;30340;52.004;5.908;2023-01-05T11:57:13;14.10;;;4.00;;
42036;SDS011;30340;52.004;5.908;2023-01-05T11:59:40;20.23;;;4.28;;
42036;SDS011;30340;52.004;5.908;2023-01-05T12:02:30;20.35;;;4.45;;
42036;SDS011;30340;52.004;5.908;2023-01-05T12:05:17;14.45;;;4.30;;
42036;SDS011;30340;52.004;5.908;2023-01-05T12:07:47;14.23;;;3.47;;
42036;SDS011;30340;52.004;5.908;2023-01-05T12:10:22;20.95;;;4.47;;
42036;SDS011;30340;52.004;5.908;2023-01-05T12:13:06;14.60;;;4.27;;
42036;SDS011;30340;52.004;5.908;2023-01-05T12:23:56;17.27;;;4.38;;
42036;SDS011;30340;52.004;5.908;2023-01-05T12:26:50;19.70;;;4.60;;
42036;SDS011;30340;52.004;5.908;2023-01-05T12:29:50;17.88;;;4.18;;
42036;SDS011;30340;52.004;5.908;2023-01-05T12:43:57;28.70;;;5.55;;
42036;SDS011;30340;52.004;5.908;2023-01-05T12:46:56;21.15;;;4.53;;
42036;SDS011;30340;52.004;5.908;2023-01-05T12:49:38;21.20;;;4.32;;
42036;SDS011;30340;52.004;5.908;2023-01-05T12:54:51;20.98;;;5.00;;
42036;SDS011;30340;52.004;5.908;2023-01-05T12:57:32;17.85;;;4.15;;
42036;SDS011;30340;52.004;5.908;2023-01-05T13:02:56;16.52;;;3.88;;
42036;SDS011;30340;52.004;5.908;2023-01-05T13:05:30;14.38;;;4.32;;
42036;SDS011;30340;52.004;5.908;2023-01-05T13:08:08;17.85;;;4.22;;
42036;SDS011;30340;52.004;5.908;2023-01-05T13:13:29;17.10;;;4.10;;
42036;SDS011;30340;52.004;5.908;2023-01-05T13:18:48;21.20;;;4.97;;
42036;SDS011;30340;52.004;5.908;2023-01-05T13:21:19;20.05;;;4.50;;
42036;SDS011;30340;52.004;5.908;2023-01-05T13:23:47;18.38;;;4.70;;
42036;SDS011;30340;52.004;5.908;2023-01-05T13:26:22;16.52;;;4.45;;
42036;SDS011;30340;52.004;5.908;2023-01-05T13:28:48;16.58;;;4.30;;
42036;SDS011;30340;52.004;5.908;2023-01-05T13:31:22;16.55;;;4.15;;
42036;SDS011;30340;52.004;5.908;2023-01-05T13:36:30;15.20;;;4.07;;
42036;SDS011;30340;52.004;5.908;2023-01-05T13:39:09;11.88;;;3.33;;
42036;SDS011;30340;52.004;5.908;2023-01-05T13:42:03;16.90;;;4.53;;
42036;SDS011;30340;52.004;5.908;2023-01-05T13:44:36;15.98;;;4.20;;
42036;SDS011;30340;52.004;5.908;2023-01-05T13:55:10;17.00;;;4.65;;
42036;SDS011;30340;52.004;5.908;2023-01-05T13:57:40;18.20;;;4.37;;
42036;SDS011;30340;52.004;5.908;2023-01-05T14:00:18;16.90;;;4.28;;
42036;SDS011;30340;52.004;5.908;2023-01-05T14:02:55;17.05;;;4.10;;
42036;SDS011;30340;52.004;5.908;2023-01-05T14:05:33;17.10;;;4.07;;
42036;SDS011;30340;52.004;5.908;2023-01-05T14:08:03;19.17;;;5.10;;
42036;SDS011;30340;52.004;5.908;2023-01-05T14:10:31;18.23;;;4.40;;
42036;SDS011;30340;52.004;5.908;2023-01-05T14:12:57;19.45;;;5.10;;
42036;SDS011;30340;52.004;5.908;2023-01-05T14:15:38;15.57;;;3.95;;
42036;SDS011;30340;52.004;5.908;2023-01-05T14:18:12;20.57;;;4.33;;
42036;SDS011;30340;52.004;5.908;2023-01-05T14:21:16;19.20;;;4.40;;
42036;SDS011;30340;52.004;5.908;2023-01-05T14:32:30;18.98;;;4.22;;
42036;SDS011;30340;52.004;5.908;2023-01-05T14:37:43;19.42;;;4.40;;
42036;SDS011;30340;52.004;5.908;2023-01-05T14:42:46;17.48;;;4.45;;
42036;SDS011;30340;52.004;5.908;2023-01-05T14:45:21;20.13;;;4.30;;
42036;SDS011;30340;52.004;5.908;2023-01-05T14:47:51;18.52;;;4.00;;
42036;SDS011;30340;52.004;5.908;2023-01-05T14:50:36;25.13;;;5.25;;
42036;SDS011;30340;52.004;5.908;2023-01-05T14:55:39;18.35;;;4.50;;
42036;SDS011;30340;52.004;5.908;2023-01-05T15:01:01;23.20;;;4.63;;
42036;SDS011;30340;52.004;5.908;2023-01-05T15:06:29;20.90;;;4.43;;
42036;SDS011;30340;52.004;5.908;2023-01-05T15:17:30;20.35;;;5.57;;
42036;SDS011;30340;52.004;5.908;2023-01-05T15:20:13;16.00;;;4.28;;
42036;SDS011;30340;52.004;5.908;2023-01-05T15:25:52;26.70;;;5.38;;
42036;SDS011;30340;52.004;5.908;2023-01-05T15:28:32;21.92;;;5.45;;
42036;SDS011;30340;52.004;5.908;2023-01-05T15:36:48;20.30;;;4.20;;
42036;SDS011;30340;52.004;5.908;2023-01-05T15:41:52;20.50;;;4.40;;
42036;SDS011;30340;52.004;5.908;2023-01-05T15:44:20;25.23;;;5.45;;
42036;SDS011;30340;52.004;5.908;2023-01-05T15:46:46;21.95;;;4.80;;
42036;SDS011;30340;52.004;5.908;2023-01-05T15:49:21;17.13;;;4.05;;
42036;SDS011;30340;52.004;5.908;2023-01-05T15:51:52;17.65;;;4.00;;
42036;SDS011;30340;52.004;5.908;2023-01-05T15:54:25;19.27;;;5.55;;
42036;SDS011;30340;52.004;5.908;2023-01-05T15:56:52;22.80;;;4.85;;
42036;SDS011;30340;52.004;5.908;2023-01-05T15:59:28;27.02;;;5.82;;
42036;SDS011;30340;52.004;5.908;2023-01-05T16:01:54;23.83;;;5.15;;
42036;SDS011;30340;52.004;5.908;2023-01-05T16:04:19;21.00;;;5.03;;
42036;SDS011;30340;52.004;5.908;2023-01-05T16:06:46;21.05;;;5.03;;
42036;SDS011;30340;52.004;5.908;2023-01-05T16:11:48;23.10;;;4.75;;
42036;SDS011;30340;52.004;5.908;2023-01-05T16:14:38;23.38;;;5.22;;
42036;SDS011;30340;52.004;5.908;2023-01-05T16:17:09;21.08;;;4.88;;
42036;SDS011;30340;52.004;5.908;2023-01-05T16:19:48;20.80;;;5.13;;
42036;SDS011;30340;52.004;5.908;2023-01-05T16:25:23;35.42;;;19.83;;
42036;SDS011;30340;52.004;5.908;2023-01-05T16:27:54;93.40;;;46.92;;
42036;SDS011;30340;52.004;5.908;2023-01-05T16:30:32;159.05;;;95.85;;
42036;SDS011;30340;52.004;5.908;2023-01-05T16:33:15;55.50;;;29.77;;
42036;SDS011;30340;52.004;5.908;2023-01-05T16:38:35;38.15;;;16.63;;
42036;SDS011;30340;52.004;5.908;2023-01-05T16:41:05;32.83;;;15.27;;
42036;SDS011;30340;52.004;5.908;2023-01-05T16:46:22;19.75;;;6.15;;
42036;SDS011;30340;52.004;5.908;2023-01-05T16:49:22;15.73;;;4.97;;
42036;SDS011;30340;52.004;5.908;2023-01-05T16:51:52;18.85;;;7.90;;
42036;SDS011;30340;52.004;5.908;2023-01-05T16:54:20;24.92;;;6.80;;
42036;SDS011;30340;52.004;5.908;2023-01-05T16:57:01;19.63;;;7.30;;
42036;SDS011;30340;52.004;5.908;2023-01-05T16:59:48;21.55;;;6.07;;
42036;SDS011;30340;52.004;5.908;2023-01-05T17:02:29;23.88;;;11.18;;
42036;SDS011;30340;52.004;5.908;2023-01-05T17:04:55;18.33;;;4.88;;
42036;SDS011;30340;52.004;5.908;2023-01-05T17:07:21;20.30;;;5.72;;
42036;SDS011;30340;52.004;5.908;2023-01-05T17:09:47;16.92;;;4.88;;
42036;SDS011;30340;52.004;5.908;2023-01-05T17:12:13;15.48;;;4.55;;
42036;SDS011;30340;52.004;5.908;2023-01-05T17:14:39;22.05;;;5.50;;
42036;SDS011;30340;52.004;5.908;2023-01-05T17:17:07;14.38;;;4.90;;
42036;SDS011;30340;52.004;5.908;2023-01-05T17:19:35;23.80;;;7.07;;
42036;SDS011;30340;52.004;5.908;2023-01-05T17:22:01;19.42;;;5.60;;